sensor_id;sensor_type;location;lat;lon;timestamp;temperature;humidity
8459;DHT22;4266;48.816;9.154;2023-06-19T00:00:43;23.30;49.00
8459;DHT22;4266;48.816;9.154;2023-06-19T00:03:09;23.10;49.00
8459;DHT22;4266;48.816;9.154;2023-06-19T00:05:35;23.20;49.10
8459;DHT22;4266;48.816;9.154;2023-06-19T00:08:01;23.20;49.10
8459;DHT22;4266;48.816;9.154;2023-06-19T00:10:26;23.10;49.10
8459;DHT22;4266;48.816;9.154;2023-06-19T00:12:53;23.10;49.20
8459;DHT22;4266;48.816;9.154;2023-06-19T00:15:18;23.10;49.20
8459;DHT22;4266;48.816;9.154;2023-06-19T00:17:45;23.20;49.30
8459;DHT22;4266;48.816;9.154;2023-06-19T00:20:11;23.20;49.30
8459;DHT22;4266;48.816;9.154;2023-06-19T00:22:36;23.20;49.10
8459;DHT22;4266;48.816;9.154;2023-06-19T00:25:03;23.20;49.30
8459;DHT22;4266;48.816;9.154;2023-06-19T00:27:29;23.20;49.30
8459;DHT22;4266;48.816;9.154;2023-06-19T00:29:55;23.20;49.50
8459;DHT22;4266;48.816;9.154;2023-06-19T00:32:21;23.20;49.50
8459;DHT22;4266;48.816;9.154;2023-06-19T00:34:46;23.20;49.40
8459;DHT22;4266;48.816;9.154;2023-06-19T00:37:12;23.30;49.50
8459;DHT22;4266;48.816;9.154;2023-06-19T00:39:38;23.30;49.40
8459;DHT22;4266;48.816;9.154;2023-06-19T00:42:05;23.30;49.50
8459;DHT22;4266;48.816;9.154;2023-06-19T00:44:31;23.30;49.50
8459;DHT22;4266;48.816;9.154;2023-06-19T00:46:57;23.30;49.50
8459;DHT22;4266;48.816;9.154;2023-06-19T00:49:22;23.30;49.60
8459;DHT22;4266;48.816;9.154;2023-06-19T00:51:48;23.30;49.40
8459;DHT22;4266;48.816;9.154;2023-06-19T00:54:14;23.30;49.50
8459;DHT22;4266;48.816;9.154;2023-06-19T00:56:39;23.30;49.70
8459;DHT22;4266;48.816;9.154;2023-06-19T00:59:06;23.30;49.60
8459;DHT22;4266;48.816;9.154;2023-06-19T01:01:31;23.30;49.70
8459;DHT22;4266;48.816;9.154;2023-06-19T01:03:57;23.40;49.60
8459;DHT22;4266;48.816;9.154;2023-06-19T01:06:24;23.40;49.60
8459;DHT22;4266;48.816;9.154;2023-06-19T01:08:51;23.40;49.70
8459;DHT22;4266;48.816;9.154;2023-06-19T01:11:17;23.40;49.90
8459;DHT22;4266;48.816;9.154;2023-06-19T01:13:46;23.40;49.80
8459;DHT22;4266;48.816;9.154;2023-06-19T01:16:10;23.40;49.80
8459;DHT22;4266;48.816;9.154;2023-06-19T01:18:37;23.30;50.30
8459;DHT22;4266;48.816;9.154;2023-06-19T01:21:10;23.30;50.30
8459;DHT22;4266;48.816;9.154;2023-06-19T01:23:35;23.20;50.40
8459;DHT22;4266;48.816;9.154;2023-06-19T01:26:00;23.10;50.70
8459;DHT22;4266;48.816;9.154;2023-06-19T01:28:26;23.00;50.90
8459;DHT22;4266;48.816;9.154;2023-06-19T01:30:52;22.90;51.00
8459;DHT22;4266;48.816;9.154;2023-06-19T01:33:20;22.70;51.80
8459;DHT22;4266;48.816;9.154;2023-06-19T01:35:44;22.70;51.50
8459;DHT22;4266;48.816;9.154;2023-06-19T01:38:10;22.70;51.60
8459;DHT22;4266;48.816;9.154;2023-06-19T01:40:35;22.60;51.80
8459;DHT22;4266;48.816;9.154;2023-06-19T01:43:02;22.50;52.10
8459;DHT22;4266;48.816;9.154;2023-06-19T01:45:28;22.50;52.10
8459;DHT22;4266;48.816;9.154;2023-06-19T01:47:55;22.50;52.10
8459;DHT22;4266;48.816;9.154;2023-06-19T01:50:21;22.50;52.10
8459;DHT22;4266;48.816;9.154;2023-06-19T01:52:46;22.40;52.40
8459;DHT22;4266;48.816;9.154;2023-06-19T01:55:13;22.40;53.00
8459;DHT22;4266;48.816;9.154;2023-06-19T01:57:38;22.40;52.70
8459;DHT22;4266;48.816;9.154;2023-06-19T02:00:05;22.30;53.00
8459;DHT22;4266;48.816;9.154;2023-06-19T02:02:32;22.30;53.10
8459;DHT22;4266;48.816;9.154;2023-06-19T02:04:57;22.20;53.40
8459;DHT22;4266;48.816;9.154;2023-06-19T02:07:24;22.10;54.00
8459;DHT22;4266;48.816;9.154;2023-06-19T02:09:49;22.10;54.00
8459;DHT22;4266;48.816;9.154;2023-06-19T02:12:15;22.10;54.00
8459;DHT22;4266;48.816;9.154;2023-06-19T02:14:41;22.10;54.20
8459;DHT22;4266;48.816;9.154;2023-06-19T02:17:06;22.10;54.40
8459;DHT22;4266;48.816;9.154;2023-06-19T02:19:32;22.00;54.60
8459;DHT22;4266;48.816;9.154;2023-06-19T02:21:58;22.00;54.80
8459;DHT22;4266;48.816;9.154;2023-06-19T02:24:24;21.90;54.90
8459;DHT22;4266;48.816;9.154;2023-06-19T02:26:50;21.90;54.90
8459;DHT22;4266;48.816;9.154;2023-06-19T02:29:15;21.90;55.20
8459;DHT22;4266;48.816;9.154;2023-06-19T02:31:42;21.90;55.50
8459;DHT22;4266;48.816;9.154;2023-06-19T02:34:08;22.00;55.60
8459;DHT22;4266;48.816;9.154;2023-06-19T02:36:34;22.00;55.60
8459;DHT22;4266;48.816;9.154;2023-06-19T02:39:01;21.90;55.70
8459;DHT22;4266;48.816;9.154;2023-06-19T02:41:26;21.90;55.70
8459;DHT22;4266;48.816;9.154;2023-06-19T02:43:52;22.00;55.90
8459;DHT22;4266;48.816;9.154;2023-06-19T02:46:17;22.00;56.20
8459;DHT22;4266;48.816;9.154;2023-06-19T02:48:44;21.90;56.20
8459;DHT22;4266;48.816;9.154;2023-06-19T02:51:09;21.90;56.20
8459;DHT22;4266;48.816;9.154;2023-06-19T02:53:36;21.90;56.40
8459;DHT22;4266;48.816;9.154;2023-06-19T02:56:03;21.90;56.20
8459;DHT22;4266;48.816;9.154;2023-06-19T02:58:30;21.80;56.60
8459;DHT22;4266;48.816;9.154;2023-06-19T03:00:55;21.80;56.50
8459;DHT22;4266;48.816;9.154;2023-06-19T03:03:21;21.80;56.50
8459;DHT22;4266;48.816;9.154;2023-06-19T03:05:47;21.90;56.30
8459;DHT22;4266;48.816;9.154;2023-06-19T03:08:13;22.00;56.40
8459;DHT22;4266;48.816;9.154;2023-06-19T03:10:39;22.00;56.40
8459;DHT22;4266;48.816;9.154;2023-06-19T03:13:05;22.00;56.30
8459;DHT22;4266;48.816;9.154;2023-06-19T03:15:30;22.00;56.20
8459;DHT22;4266;48.816;9.154;2023-06-19T03:17:56;22.10;56.10
8459;DHT22;4266;48.816;9.154;2023-06-19T03:20:22;22.10;55.90
8459;DHT22;4266;48.816;9.154;2023-06-19T03:22:47;22.20;55.90
8459;DHT22;4266;48.816;9.154;2023-06-19T03:25:14;22.10;56.30
8459;DHT22;4266;48.816;9.154;2023-06-19T03:27:39;22.10;56.30
8459;DHT22;4266;48.816;9.154;2023-06-19T03:30:06;22.00;56.50
8459;DHT22;4266;48.816;9.154;2023-06-19T03:32:33;21.90;56.90
8459;DHT22;4266;48.816;9.154;2023-06-19T03:35:01;22.00;57.10
8459;DHT22;4266;48.816;9.154;2023-06-19T03:37:28;21.90;57.20
8459;DHT22;4266;48.816;9.154;2023-06-19T03:39:53;22.00;57.20
8459;DHT22;4266;48.816;9.154;2023-06-19T03:42:19;21.90;57.30
8459;DHT22;4266;48.816;9.154;2023-06-19T03:44:45;21.90;57.50
8459;DHT22;4266;48.816;9.154;2023-06-19T03:47:10;21.80;57.50
8459;DHT22;4266;48.816;9.154;2023-06-19T03:49:36;21.80;57.70
8459;DHT22;4266;48.816;9.154;2023-06-19T03:52:03;21.80;58.00
8459;DHT22;4266;48.816;9.154;2023-06-19T03:54:29;21.80;58.40
8459;DHT22;4266;48.816;9.154;2023-06-19T03:56:55;21.60;58.60
8459;DHT22;4266;48.816;9.154;2023-06-19T03:59:20;21.70;58.50
8459;DHT22;4266;48.816;9.154;2023-06-19T04:01:46;21.70;58.70
8459;DHT22;4266;48.816;9.154;2023-06-19T04:04:12;21.60;58.70
8459;DHT22;4266;48.816;9.154;2023-06-19T04:06:37;21.60;58.50
8459;DHT22;4266;48.816;9.154;2023-06-19T04:09:03;21.50;58.50
8459;DHT22;4266;48.816;9.154;2023-06-19T04:11:30;21.50;58.50
8459;DHT22;4266;48.816;9.154;2023-06-19T04:13:55;21.50;58.50
8459;DHT22;4266;48.816;9.154;2023-06-19T04:16:21;21.50;58.80
8459;DHT22;4266;48.816;9.154;2023-06-19T04:18:47;21.50;58.90
8459;DHT22;4266;48.816;9.154;2023-06-19T04:21:13;21.40;59.10
8459;DHT22;4266;48.816;9.154;2023-06-19T04:23:39;21.40;59.60
8459;DHT22;4266;48.816;9.154;2023-06-19T04:26:04;21.40;59.50
8459;DHT22;4266;48.816;9.154;2023-06-19T04:28:30;21.30;59.70
8459;DHT22;4266;48.816;9.154;2023-06-19T04:30:56;21.40;60.30
8459;DHT22;4266;48.816;9.154;2023-06-19T04:33:22;21.40;60.00
8459;DHT22;4266;48.816;9.154;2023-06-19T04:35:48;21.50;60.20
8459;DHT22;4266;48.816;9.154;2023-06-19T04:38:13;21.50;60.30
8459;DHT22;4266;48.816;9.154;2023-06-19T04:40:39;21.50;60.60
8459;DHT22;4266;48.816;9.154;2023-06-19T04:43:05;21.40;61.60
8459;DHT22;4266;48.816;9.154;2023-06-19T04:45:31;21.40;61.10
8459;DHT22;4266;48.816;9.154;2023-06-19T04:47:57;21.50;61.50
8459;DHT22;4266;48.816;9.154;2023-06-19T04:50:22;21.50;61.20
8459;DHT22;4266;48.816;9.154;2023-06-19T04:52:49;21.60;61.90
8459;DHT22;4266;48.816;9.154;2023-06-19T04:55:14;21.50;61.60
8459;DHT22;4266;48.816;9.154;2023-06-19T04:57:41;21.90;62.50
8459;DHT22;4266;48.816;9.154;2023-06-19T05:00:08;22.10;61.90
8459;DHT22;4266;48.816;9.154;2023-06-19T05:02:35;22.10;61.90
8459;DHT22;4266;48.816;9.154;2023-06-19T05:05:01;22.30;61.50
8459;DHT22;4266;48.816;9.154;2023-06-19T05:07:29;22.60;61.40
8459;DHT22;4266;48.816;9.154;2023-06-19T05:09:53;22.60;61.30
8459;DHT22;4266;48.816;9.154;2023-06-19T05:12:21;22.70;61.70
8459;DHT22;4266;48.816;9.154;2023-06-19T05:14:46;22.60;61.40
8459;DHT22;4266;48.816;9.154;2023-06-19T05:17:12;22.80;61.70
8459;DHT22;4266;48.816;9.154;2023-06-19T05:19:38;22.90;61.10
8459;DHT22;4266;48.816;9.154;2023-06-19T05:22:04;22.70;61.30
8459;DHT22;4266;48.816;9.154;2023-06-19T05:24:30;22.70;61.60
8459;DHT22;4266;48.816;9.154;2023-06-19T05:26:55;22.60;61.50
8459;DHT22;4266;48.816;9.154;2023-06-19T05:29:21;22.70;61.60
8459;DHT22;4266;48.816;9.154;2023-06-19T05:31:47;22.70;61.80
8459;DHT22;4266;48.816;9.154;2023-06-19T05:34:14;22.80;61.90
8459;DHT22;4266;48.816;9.154;2023-06-19T05:36:39;22.80;61.90
8459;DHT22;4266;48.816;9.154;2023-06-19T05:39:05;22.90;61.60
8459;DHT22;4266;48.816;9.154;2023-06-19T05:41:31;22.90;61.70
8459;DHT22;4266;48.816;9.154;2023-06-19T05:43:56;23.10;61.90
8459;DHT22;4266;48.816;9.154;2023-06-19T05:46:22;23.10;61.70
8459;DHT22;4266;48.816;9.154;2023-06-19T05:48:49;23.40;61.00
8459;DHT22;4266;48.816;9.154;2023-06-19T05:51:14;23.40;61.00
8459;DHT22;4266;48.816;9.154;2023-06-19T05:53:40;23.40;61.20
8459;DHT22;4266;48.816;9.154;2023-06-19T05:56:06;23.40;61.10
8459;DHT22;4266;48.816;9.154;2023-06-19T05:58:31;23.60;60.80
8459;DHT22;4266;48.816;9.154;2023-06-19T06:00:57;23.60;60.90
8459;DHT22;4266;48.816;9.154;2023-06-19T06:03:23;23.70;60.80
8459;DHT22;4266;48.816;9.154;2023-06-19T06:05:49;24.00;61.70
8459;DHT22;4266;48.816;9.154;2023-06-19T06:08:15;24.00;61.70
8459;DHT22;4266;48.816;9.154;2023-06-19T06:10:41;24.00;61.20
8459;DHT22;4266;48.816;9.154;2023-06-19T06:13:06;24.20;61.60
8459;DHT22;4266;48.816;9.154;2023-06-19T06:15:32;24.20;59.90
8459;DHT22;4266;48.816;9.154;2023-06-19T06:17:58;24.70;60.30
8459;DHT22;4266;48.816;9.154;2023-06-19T06:20:24;24.70;59.80
8459;DHT22;4266;48.816;9.154;2023-06-19T06:22:50;24.70;59.80
8459;DHT22;4266;48.816;9.154;2023-06-19T06:25:16;24.40;60.00
8459;DHT22;4266;48.816;9.154;2023-06-19T06:27:41;24.20;60.60
8459;DHT22;4266;48.816;9.154;2023-06-19T06:30:09;24.30;60.30
8459;DHT22;4266;48.816;9.154;2023-06-19T06:32:35;24.70;60.50
8459;DHT22;4266;48.816;9.154;2023-06-19T06:35:01;25.00;60.10
8459;DHT22;4266;48.816;9.154;2023-06-19T06:37:28;25.50;60.00
8459;DHT22;4266;48.816;9.154;2023-06-19T06:39:53;25.50;59.90
8459;DHT22;4266;48.816;9.154;2023-06-19T06:42:19;26.00;59.90
8459;DHT22;4266;48.816;9.154;2023-06-19T06:44:45;26.30;59.20
8459;DHT22;4266;48.816;9.154;2023-06-19T06:47:11;27.20;57.90
8459;DHT22;4266;48.816;9.154;2023-06-19T06:49:37;27.20;57.60
8459;DHT22;4266;48.816;9.154;2023-06-19T06:52:04;27.60;57.30
8459;DHT22;4266;48.816;9.154;2023-06-19T06:54:30;27.90;57.50
8459;DHT22;4266;48.816;9.154;2023-06-19T06:56:56;28.00;57.20
8459;DHT22;4266;48.816;9.154;2023-06-19T06:59:21;27.40;56.60
8459;DHT22;4266;48.816;9.154;2023-06-19T07:01:47;26.50;57.10
8459;DHT22;4266;48.816;9.154;2023-06-19T07:04:13;25.90;57.50
8459;DHT22;4266;48.816;9.154;2023-06-19T07:06:39;25.40;57.60
8459;DHT22;4266;48.816;9.154;2023-06-19T07:09:06;25.20;57.90
8459;DHT22;4266;48.816;9.154;2023-06-19T07:11:31;25.10;57.80
8459;DHT22;4266;48.816;9.154;2023-06-19T07:13:57;25.20;58.20
8459;DHT22;4266;48.816;9.154;2023-06-19T07:16:23;25.10;58.20
8459;DHT22;4266;48.816;9.154;2023-06-19T07:18:48;25.30;57.90
8459;DHT22;4266;48.816;9.154;2023-06-19T07:21:14;25.40;58.10
8459;DHT22;4266;48.816;9.154;2023-06-19T07:23:40;25.60;58.20
8459;DHT22;4266;48.816;9.154;2023-06-19T07:26:06;25.80;57.50
8459;DHT22;4266;48.816;9.154;2023-06-19T07:28:32;25.80;57.50
8459;DHT22;4266;48.816;9.154;2023-06-19T07:30:58;26.30;58.00
8459;DHT22;4266;48.816;9.154;2023-06-19T07:33:24;26.20;57.90
8459;DHT22;4266;48.816;9.154;2023-06-19T07:35:50;26.30;57.60
8459;DHT22;4266;48.816;9.154;2023-06-19T07:38:15;26.30;57.60
8459;DHT22;4266;48.816;9.154;2023-06-19T07:40:41;27.00;57.70
8459;DHT22;4266;48.816;9.154;2023-06-19T07:43:07;26.50;56.90
8459;DHT22;4266;48.816;9.154;2023-06-19T07:45:33;26.90;57.10
8459;DHT22;4266;48.816;9.154;2023-06-19T07:48:00;26.90;57.00
8459;DHT22;4266;48.816;9.154;2023-06-19T07:50:26;26.90;57.00
8459;DHT22;4266;48.816;9.154;2023-06-19T07:52:51;27.20;56.80
8459;DHT22;4266;48.816;9.154;2023-06-19T07:55:17;27.10;56.30
8459;DHT22;4266;48.816;9.154;2023-06-19T07:57:43;26.90;56.60
8459;DHT22;4266;48.816;9.154;2023-06-19T08:00:11;26.40;56.00
8459;DHT22;4266;48.816;9.154;2023-06-19T08:02:37;26.30;55.90
8459;DHT22;4266;48.816;9.154;2023-06-19T08:05:02;26.30;56.00
8459;DHT22;4266;48.816;9.154;2023-06-19T08:07:28;25.90;56.20
8459;DHT22;4266;48.816;9.154;2023-06-19T08:09:54;26.20;56.70
8459;DHT22;4266;48.816;9.154;2023-06-19T08:12:20;26.90;56.40
8459;DHT22;4266;48.816;9.154;2023-06-19T08:14:46;28.00;56.70
8459;DHT22;4266;48.816;9.154;2023-06-19T08:17:11;28.50;56.40
8459;DHT22;4266;48.816;9.154;2023-06-19T08:19:38;29.40;55.60
8459;DHT22;4266;48.816;9.154;2023-06-19T08:22:04;29.30;55.50
8459;DHT22;4266;48.816;9.154;2023-06-19T08:24:30;29.70;55.30
8459;DHT22;4266;48.816;9.154;2023-06-19T08:26:55;29.70;55.30
8459;DHT22;4266;48.816;9.154;2023-06-19T08:29:21;29.60;54.60
8459;DHT22;4266;48.816;9.154;2023-06-19T08:31:47;29.60;54.30
8459;DHT22;4266;48.816;9.154;2023-06-19T08:34:13;29.60;53.80
8459;DHT22;4266;48.816;9.154;2023-06-19T08:36:38;30.00;53.90
8459;DHT22;4266;48.816;9.154;2023-06-19T08:39:04;30.30;53.60
8459;DHT22;4266;48.816;9.154;2023-06-19T08:41:29;30.10;53.60
8459;DHT22;4266;48.816;9.154;2023-06-19T08:43:56;29.50;53.30
8459;DHT22;4266;48.816;9.154;2023-06-19T08:46:22;29.50;53.30
8459;DHT22;4266;48.816;9.154;2023-06-19T08:48:47;29.50;53.70
8459;DHT22;4266;48.816;9.154;2023-06-19T08:51:13;29.70;54.20
8459;DHT22;4266;48.816;9.154;2023-06-19T08:53:54;30.40;54.30
8459;DHT22;4266;48.816;9.154;2023-06-19T08:56:19;30.60;53.90
8459;DHT22;4266;48.816;9.154;2023-06-19T08:58:45;30.60;53.90
8459;DHT22;4266;48.816;9.154;2023-06-19T09:01:10;30.50;53.70
8459;DHT22;4266;48.816;9.154;2023-06-19T09:03:36;30.70;54.00
8459;DHT22;4266;48.816;9.154;2023-06-19T09:06:03;31.30;54.50
8459;DHT22;4266;48.816;9.154;2023-06-19T09:08:29;31.50;53.70
8459;DHT22;4266;48.816;9.154;2023-06-19T09:10:58;31.50;53.70
8459;DHT22;4266;48.816;9.154;2023-06-19T09:13:24;32.00;54.10
8459;DHT22;4266;48.816;9.154;2023-06-19T09:15:58;31.80;53.90
8459;DHT22;4266;48.816;9.154;2023-06-19T09:18:23;31.80;53.90
8459;DHT22;4266;48.816;9.154;2023-06-19T09:20:51;32.20;53.50
8459;DHT22;4266;48.816;9.154;2023-06-19T09:23:16;32.40;53.40
8459;DHT22;4266;48.816;9.154;2023-06-19T09:25:47;32.30;53.50
8459;DHT22;4266;48.816;9.154;2023-06-19T09:28:24;32.30;52.80
8459;DHT22;4266;48.816;9.154;2023-06-19T09:30:54;32.30;52.80
8459;DHT22;4266;48.816;9.154;2023-06-19T09:33:19;32.30;52.40
8459;DHT22;4266;48.816;9.154;2023-06-19T09:35:44;32.20;52.20
8459;DHT22;4266;48.816;9.154;2023-06-19T09:38:11;31.70;52.00
8459;DHT22;4266;48.816;9.154;2023-06-19T09:40:36;31.90;53.20
8459;DHT22;4266;48.816;9.154;2023-06-19T09:43:01;32.10;52.80
8459;DHT22;4266;48.816;9.154;2023-06-19T09:45:28;31.80;52.40
8459;DHT22;4266;48.816;9.154;2023-06-19T09:47:54;31.80;52.20
8459;DHT22;4266;48.816;9.154;2023-06-19T09:50:19;31.60;52.10
8459;DHT22;4266;48.816;9.154;2023-06-19T09:52:45;31.60;52.40
8459;DHT22;4266;48.816;9.154;2023-06-19T09:55:11;31.70;52.70
8459;DHT22;4266;48.816;9.154;2023-06-19T09:57:37;31.10;53.20
8459;DHT22;4266;48.816;9.154;2023-06-19T10:00:03;31.10;53.10
8459;DHT22;4266;48.816;9.154;2023-06-19T10:02:30;31.60;53.40
8459;DHT22;4266;48.816;9.154;2023-06-19T10:04:55;31.70;51.90
8459;DHT22;4266;48.816;9.154;2023-06-19T10:07:22;32.10;52.60
8459;DHT22;4266;48.816;9.154;2023-06-19T10:09:58;32.10;52.70
8459;DHT22;4266;48.816;9.154;2023-06-19T10:12:41;31.80;52.70
8459;DHT22;4266;48.816;9.154;2023-06-19T10:15:10;31.80;52.70
8459;DHT22;4266;48.816;9.154;2023-06-19T10:17:37;32.00;53.40
8459;DHT22;4266;48.816;9.154;2023-06-19T10:20:03;32.10;52.60
8459;DHT22;4266;48.816;9.154;2023-06-19T10:22:30;32.10;52.60
8459;DHT22;4266;48.816;9.154;2023-06-19T10:24:55;31.70;52.60
8459;DHT22;4266;48.816;9.154;2023-06-19T10:27:21;32.00;52.90
8459;DHT22;4266;48.816;9.154;2023-06-19T10:29:53;32.10;52.90
8459;DHT22;4266;48.816;9.154;2023-06-19T10:32:18;32.10;52.60
8459;DHT22;4266;48.816;9.154;2023-06-19T10:34:45;31.80;53.40
8459;DHT22;4266;48.816;9.154;2023-06-19T10:37:10;31.80;53.40
8459;DHT22;4266;48.816;9.154;2023-06-19T10:39:36;32.30;53.40
8459;DHT22;4266;48.816;9.154;2023-06-19T10:42:04;32.10;53.00
8459;DHT22;4266;48.816;9.154;2023-06-19T10:44:27;32.40;53.00
8459;DHT22;4266;48.816;9.154;2023-06-19T10:46:53;32.10;53.60
8459;DHT22;4266;48.816;9.154;2023-06-19T10:49:19;32.20;53.20
8459;DHT22;4266;48.816;9.154;2023-06-19T10:51:45;32.20;53.10
8459;DHT22;4266;48.816;9.154;2023-06-19T10:54:11;32.10;53.50
8459;DHT22;4266;48.816;9.154;2023-06-19T10:56:37;32.10;53.50
8459;DHT22;4266;48.816;9.154;2023-06-19T10:59:04;32.50;53.40
8459;DHT22;4266;48.816;9.154;2023-06-19T11:01:36;32.50;53.10
8459;DHT22;4266;48.816;9.154;2023-06-19T11:04:02;32.40;52.90
8459;DHT22;4266;48.816;9.154;2023-06-19T11:06:27;32.30;52.90
8459;DHT22;4266;48.816;9.154;2023-06-19T11:08:52;32.30;52.90
8459;DHT22;4266;48.816;9.154;2023-06-19T11:11:18;31.80;53.50
8459;DHT22;4266;48.816;9.154;2023-06-19T11:13:44;31.70;52.80
8459;DHT22;4266;48.816;9.154;2023-06-19T11:16:10;32.00;53.60
8459;DHT22;4266;48.816;9.154;2023-06-19T11:18:35;32.30;53.60
8459;DHT22;4266;48.816;9.154;2023-06-19T11:21:02;32.40;53.40
8459;DHT22;4266;48.816;9.154;2023-06-19T11:23:28;32.40;53.30
8459;DHT22;4266;48.816;9.154;2023-06-19T11:26:01;33.00;53.30
8459;DHT22;4266;48.816;9.154;2023-06-19T11:28:20;32.90;53.20
8459;DHT22;4266;48.816;9.154;2023-06-19T11:30:48;32.70;53.00
8459;DHT22;4266;48.816;9.154;2023-06-19T11:33:19;32.70;53.00
8459;DHT22;4266;48.816;9.154;2023-06-19T11:35:49;32.50;52.10
8459;DHT22;4266;48.816;9.154;2023-06-19T11:38:17;32.50;52.10
8459;DHT22;4266;48.816;9.154;2023-06-19T11:40:41;32.50;52.80
8459;DHT22;4266;48.816;9.154;2023-06-19T11:43:07;32.50;51.70
8459;DHT22;4266;48.816;9.154;2023-06-19T11:45:33;32.70;51.80
8459;DHT22;4266;48.816;9.154;2023-06-19T11:47:58;32.70;52.30
8459;DHT22;4266;48.816;9.154;2023-06-19T11:50:27;33.10;51.90
8459;DHT22;4266;48.816;9.154;2023-06-19T11:52:53;31.40;53.00
8459;DHT22;4266;48.816;9.154;2023-06-19T11:55:19;31.40;52.80
8459;DHT22;4266;48.816;9.154;2023-06-19T11:57:45;31.40;52.40
8459;DHT22;4266;48.816;9.154;2023-06-19T12:00:15;31.20;53.20
8459;DHT22;4266;48.816;9.154;2023-06-19T12:02:41;31.30;53.00
8459;DHT22;4266;48.816;9.154;2023-06-19T12:05:07;31.20;52.40
8459;DHT22;4266;48.816;9.154;2023-06-19T12:07:33;30.50;52.50
8459;DHT22;4266;48.816;9.154;2023-06-19T12:09:59;30.80;53.50
8459;DHT22;4266;48.816;9.154;2023-06-19T12:12:25;30.80;53.70
8459;DHT22;4266;48.816;9.154;2023-06-19T12:14:50;30.90;53.20
8459;DHT22;4266;48.816;9.154;2023-06-19T12:17:16;31.00;52.60
8459;DHT22;4266;48.816;9.154;2023-06-19T12:19:41;31.10;53.10
8459;DHT22;4266;48.816;9.154;2023-06-19T12:22:07;31.40;53.90
8459;DHT22;4266;48.816;9.154;2023-06-19T12:24:33;31.30;52.60
8459;DHT22;4266;48.816;9.154;2023-06-19T12:26:59;31.50;54.00
8459;DHT22;4266;48.816;9.154;2023-06-19T12:29:24;31.30;53.30
8459;DHT22;4266;48.816;9.154;2023-06-19T12:31:50;31.40;52.80
8459;DHT22;4266;48.816;9.154;2023-06-19T12:34:16;30.80;52.80
8459;DHT22;4266;48.816;9.154;2023-06-19T12:36:41;31.40;53.10
8459;DHT22;4266;48.816;9.154;2023-06-19T12:39:07;31.50;53.10
8459;DHT22;4266;48.816;9.154;2023-06-19T12:41:33;31.50;52.90
8459;DHT22;4266;48.816;9.154;2023-06-19T12:43:58;31.30;52.70
8459;DHT22;4266;48.816;9.154;2023-06-19T12:46:24;31.30;53.30
8459;DHT22;4266;48.816;9.154;2023-06-19T12:48:50;31.60;52.90
8459;DHT22;4266;48.816;9.154;2023-06-19T12:51:17;31.60;53.40
8459;DHT22;4266;48.816;9.154;2023-06-19T12:53:42;31.80;53.00
8459;DHT22;4266;48.816;9.154;2023-06-19T12:56:08;31.30;52.60
8459;DHT22;4266;48.816;9.154;2023-06-19T12:58:34;30.50;52.50
8459;DHT22;4266;48.816;9.154;2023-06-19T13:01:01;30.40;53.00
8459;DHT22;4266;48.816;9.154;2023-06-19T13:03:26;30.30;52.90
8459;DHT22;4266;48.816;9.154;2023-06-19T13:05:52;30.60;53.50
8459;DHT22;4266;48.816;9.154;2023-06-19T13:08:17;31.00;53.00
8459;DHT22;4266;48.816;9.154;2023-06-19T13:10:44;31.10;52.60
8459;DHT22;4266;48.816;9.154;2023-06-19T13:13:09;31.10;52.50
8459;DHT22;4266;48.816;9.154;2023-06-19T13:15:36;31.60;52.80
8459;DHT22;4266;48.816;9.154;2023-06-19T13:18:02;31.10;51.80
8459;DHT22;4266;48.816;9.154;2023-06-19T13:20:27;30.90;52.30
8459;DHT22;4266;48.816;9.154;2023-06-19T13:22:53;31.20;53.10
8459;DHT22;4266;48.816;9.154;2023-06-19T13:25:19;31.10;53.00
8459;DHT22;4266;48.816;9.154;2023-06-19T13:27:44;30.80;52.80
8459;DHT22;4266;48.816;9.154;2023-06-19T13:30:11;30.50;52.70
8459;DHT22;4266;48.816;9.154;2023-06-19T13:32:38;29.90;52.70
8459;DHT22;4266;48.816;9.154;2023-06-19T13:35:06;29.90;52.70
8459;DHT22;4266;48.816;9.154;2023-06-19T13:37:33;29.70;52.70
8459;DHT22;4266;48.816;9.154;2023-06-19T13:39:59;29.80;52.80
8459;DHT22;4266;48.816;9.154;2023-06-19T13:42:24;30.00;52.80
8459;DHT22;4266;48.816;9.154;2023-06-19T13:44:50;29.80;52.60
8459;DHT22;4266;48.816;9.154;2023-06-19T13:47:16;29.90;52.80
8459;DHT22;4266;48.816;9.154;2023-06-19T13:49:41;29.70;52.60
8459;DHT22;4266;48.816;9.154;2023-06-19T13:52:07;29.60;52.80
8459;DHT22;4266;48.816;9.154;2023-06-19T13:54:33;29.60;52.80
8459;DHT22;4266;48.816;9.154;2023-06-19T13:56:59;29.70;52.70
8459;DHT22;4266;48.816;9.154;2023-06-19T13:59:26;29.40;52.50
8459;DHT22;4266;48.816;9.154;2023-06-19T14:01:51;29.50;52.60
8459;DHT22;4266;48.816;9.154;2023-06-19T14:04:18;30.00;52.30
8459;DHT22;4266;48.816;9.154;2023-06-19T14:06:45;29.90;52.30
8459;DHT22;4266;48.816;9.154;2023-06-19T14:09:10;30.00;52.60
8459;DHT22;4266;48.816;9.154;2023-06-19T14:11:36;30.00;52.30
8459;DHT22;4266;48.816;9.154;2023-06-19T14:14:01;29.70;52.10
8459;DHT22;4266;48.816;9.154;2023-06-19T14:16:27;29.90;53.20
8459;DHT22;4266;48.816;9.154;2023-06-19T14:18:54;30.20;53.70
8459;DHT22;4266;48.816;9.154;2023-06-19T14:21:19;30.20;53.60
8459;DHT22;4266;48.816;9.154;2023-06-19T14:23:45;30.30;53.10
8459;DHT22;4266;48.816;9.154;2023-06-19T14:26:11;30.20;53.00
8459;DHT22;4266;48.816;9.154;2023-06-19T14:28:37;30.30;52.90
8459;DHT22;4266;48.816;9.154;2023-06-19T14:31:02;30.50;52.90
8459;DHT22;4266;48.816;9.154;2023-06-19T14:33:28;30.50;52.60
8459;DHT22;4266;48.816;9.154;2023-06-19T14:35:53;30.50;52.90
8459;DHT22;4266;48.816;9.154;2023-06-19T14:38:20;30.30;52.40
8459;DHT22;4266;48.816;9.154;2023-06-19T14:40:45;30.20;52.30
8459;DHT22;4266;48.816;9.154;2023-06-19T14:43:12;30.30;52.40
8459;DHT22;4266;48.816;9.154;2023-06-19T14:45:37;30.30;52.40
8459;DHT22;4266;48.816;9.154;2023-06-19T14:48:04;30.30;52.60
8459;DHT22;4266;48.816;9.154;2023-06-19T14:50:31;30.30;52.70
8459;DHT22;4266;48.816;9.154;2023-06-19T14:52:56;30.30;52.70
8459;DHT22;4266;48.816;9.154;2023-06-19T14:55:22;30.30;52.40
8459;DHT22;4266;48.816;9.154;2023-06-19T14:57:48;30.30;52.40
8459;DHT22;4266;48.816;9.154;2023-06-19T15:00:14;30.20;52.70
8459;DHT22;4266;48.816;9.154;2023-06-19T15:02:40;30.20;52.60
8459;DHT22;4266;48.816;9.154;2023-06-19T15:05:07;30.20;52.30
8459;DHT22;4266;48.816;9.154;2023-06-19T15:07:33;30.10;52.20
8459;DHT22;4266;48.816;9.154;2023-06-19T15:09:59;30.20;52.00
8459;DHT22;4266;48.816;9.154;2023-06-19T15:12:24;30.20;51.90
8459;DHT22;4266;48.816;9.154;2023-06-19T15:14:51;30.20;52.40
8459;DHT22;4266;48.816;9.154;2023-06-19T15:17:16;30.20;52.40
8459;DHT22;4266;48.816;9.154;2023-06-19T15:19:43;30.10;52.20
8459;DHT22;4266;48.816;9.154;2023-06-19T15:22:08;30.00;52.10
8459;DHT22;4266;48.816;9.154;2023-06-19T15:24:34;30.00;52.40
8459;DHT22;4266;48.816;9.154;2023-06-19T15:27:00;29.70;52.20
8459;DHT22;4266;48.816;9.154;2023-06-19T15:29:25;29.90;52.40
8459;DHT22;4266;48.816;9.154;2023-06-19T15:31:52;29.70;52.30
8459;DHT22;4266;48.816;9.154;2023-06-19T15:34:17;29.70;52.30
8459;DHT22;4266;48.816;9.154;2023-06-19T15:36:43;29.80;52.60
8459;DHT22;4266;48.816;9.154;2023-06-19T15:39:09;29.90;52.20
8459;DHT22;4266;48.816;9.154;2023-06-19T15:41:34;29.70;52.30
8459;DHT22;4266;48.816;9.154;2023-06-19T15:44:00;29.60;53.10
8459;DHT22;4266;48.816;9.154;2023-06-19T15:46:26;29.60;52.80
8459;DHT22;4266;48.816;9.154;2023-06-19T15:48:52;29.60;53.10
8459;DHT22;4266;48.816;9.154;2023-06-19T15:51:18;29.70;53.10
8459;DHT22;4266;48.816;9.154;2023-06-19T15:53:43;29.90;53.30